Time;durP1;ratioP1;P1;durP2;ratioP2;P2;SDS_P1;SDS_P2;PMS_P1;PMS_P2;Temp;Humidity;BMP_temperature;BMP_pressure;BME280_temperature;BME280_humidity;BME280_pressure;Samples;Min_cycle;Max_cycle;Signal;HPM_P1;HPM_P2
2023/12/07 00:00:11;;;;;;;11.50;7.43;;;;;;;;;;6256091;23;20035;-95
2023/12/07 00:02:37;;;;;;;10.00;7.25;;;;;;;;;;6255757;23;20016;-95
2023/12/07 00:05:03;;;;;;;13.18;7.70;;;;;;;;;;6232634;23;20048;-95
2023/12/07 00:07:29;;;;;;;12.57;8.38;;;;;;;;;;6257808;23;20020;-95
2023/12/07 00:09:55;;;;;;;14.90;8.40;;;;;;;;;;6232260;23;20484;-96
2023/12/07 00:12:21;;;;;;;11.35;7.63;;;;;;;;;;6232992;23;20020;-96
2023/12/07 00:14:47;;;;;;;12.50;8.43;;;;;;;;;;6257888;23;20046;-96
2023/12/07 00:17:14;;;;;;;13.05;8.65;;;;;;;;;;6258354;23;20020;-96
2023/12/07 00:19:40;;;;;;;12.45;8.20;;;;;;;;;;6257287;23;20047;-96
2023/12/07 00:22:06;;;;;;;12.02;8.32;;;;;;;;;;6258713;23;20020;-95
2023/12/07 00:24:32;;;;;;;11.65;8.23;;;;;;;;;;6256813;23;20449;-96
2023/12/07 00:26:58;;;;;;;15.25;8.25;;;;;;;;;;6256158;23;20028;-95
2023/12/07 00:29:24;;;;;;;10.80;7.95;;;;;;;;;;6257458;23;20024;-95
2023/12/07 00:31:51;;;;;;;14.40;8.15;;;;;;;;;;6257948;23;20066;-95
2023/12/07 00:34:18;;;;;;;9.40;7.72;;;;;;;;;;6232841;23;20016;-95
2023/12/07 00:36:44;;;;;;;9.98;7.57;;;;;;;;;;6254792;23;20020;-96
2023/12/07 00:39:10;;;;;;;12.35;7.82;;;;;;;;;;6257791;23;20023;-96
2023/12/07 00:41:36;;;;;;;14.93;8.18;;;;;;;;;;6254682;23;20107;-95
2023/12/07 00:44:02;;;;;;;14.00;7.88;;;;;;;;;;6257562;23;20024;-96
2023/12/07 00:46:29;;;;;;;10.05;7.57;;;;;;;;;;6256620;23;20472;-96
2023/12/07 00:48:55;;;;;;;10.55;7.88;;;;;;;;;;6257226;23;20030;-96
2023/12/07 00:51:21;;;;;;;13.88;7.63;;;;;;;;;;6255896;23;20573;-95
2023/12/07 00:53:47;;;;;;;9.65;7.53;;;;;;;;;;6255175;23;20488;-95
2023/12/07 00:56:13;;;;;;;9.15;6.75;;;;;;;;;;6256151;23;20453;-95
2023/12/07 00:58:39;;;;;;;9.45;7.75;;;;;;;;;;6254340;23;20016;-95
2023/12/07 01:01:06;;;;;;;10.93;7.15;;;;;;;;;;6255200;23;20031;-95
2023/12/07 01:03:32;;;;;;;10.60;7.70;;;;;;;;;;6255057;23;20016;-96
2023/12/07 01:06:04;;;;;;;9.68;7.18;;;;;;;;;;6256566;23;20051;-96
2023/12/07 01:08:30;;;;;;;11.63;7.15;;;;;;;;;;6257252;23;20034;-94
2023/12/07 01:10:57;;;;;;;10.73;7.68;;;;;;;;;;6254780;23;20020;-96
2023/12/07 01:13:23;;;;;;;10.80;7.50;;;;;;;;;;6254163;23;20034;-96
2023/12/07 01:15:50;;;;;;;11.70;7.65;;;;;;;;;;6256648;23;20020;-95
2023/12/07 01:18:16;;;;;;;9.25;6.90;;;;;;;;;;6257401;23;20020;-96
2023/12/07 01:20:42;;;;;;;10.00;7.22;;;;;;;;;;6257422;23;20024;-96
2023/12/07 01:23:09;;;;;;;14.13;8.50;;;;;;;;;;6256002;23;20453;-96
2023/12/07 01:25:35;;;;;;;9.52;6.78;;;;;;;;;;6255901;23;20016;-96
2023/12/07 01:28:01;;;;;;;10.55;7.65;;;;;;;;;;6254108;23;20460;-96
2023/12/07 01:30:27;;;;;;;11.82;7.43;;;;;;;;;;6251888;23;20051;-95
2023/12/07 01:32:53;;;;;;;10.52;8.07;;;;;;;;;;6255928;23;20020;-96
2023/12/07 01:35:19;;;;;;;9.30;7.00;;;;;;;;;;6255704;23;20060;-96
2023/12/07 01:37:45;;;;;;;10.55;7.47;;;;;;;;;;6255524;23;20031;-96
2023/12/07 01:40:11;;;;;;;11.70;7.80;;;;;;;;;;6257086;23;20139;-95
2023/12/07 01:42:38;;;;;;;10.98;7.55;;;;;;;;;;6279867;22;20020;-96
2023/12/07 01:45:05;;;;;;;9.43;6.97;;;;;;;;;;6256601;23;20149;-95
2023/12/07 01:47:32;;;;;;;10.60;6.30;;;;;;;;;;6254616;23;20016;-96
2023/12/07 01:49:58;;;;;;;9.70;7.65;;;;;;;;;;6257434;23;20051;-96
2023/12/07 01:52:25;;;;;;;10.23;7.13;;;;;;;;;;6257551;23;20016;-96
2023/12/07 01:54:51;;;;;;;11.15;7.47;;;;;;;;;;6257917;23;20027;-96
2023/12/07 01:57:18;;;;;;;10.15;7.45;;;;;;;;;;6257414;23;20020;-96
2023/12/07 01:59:44;;;;;;;10.05;7.40;;;;;;;;;;6258371;22;20465;-94
2023/12/07 02:02:10;;;;;;;11.18;7.20;;;;;;;;;;6236969;22;20015;-95
2023/12/07 02:04:36;;;;;;;9.18;7.10;;;;;;;;;;6262028;22;20007;-96
2023/12/07 02:07:03;;;;;;;10.40;7.03;;;;;;;;;;6238121;22;20016;-96
2023/12/07 02:09:30;;;;;;;9.90;6.95;;;;;;;;;;6261755;22;20024;-96
2023/12/07 02:11:56;;;;;;;8.35;6.57;;;;;;;;;;6260514;22;20015;-96
2023/12/07 02:14:22;;;;;;;9.63;6.75;;;;;;;;;;6262824;22;20030;-95
2023/12/07 02:17:02;;;;;;;12.73;7.22;;;;;;;;;;6238719;22;20102;-96
2023/12/07 02:19:38;;;;;;;11.43;6.60;;;;;;;;;;6266993;22;20030;-96
2023/12/07 02:22:10;;;;;;;8.85;6.28;;;;;;;;;;6266241;22;20015;-95
2023/12/07 02:24:38;;;;;;;8.35;6.75;;;;;;;;;;6266175;22;20019;-96
2023/12/07 02:27:04;;;;;;;11.63;6.50;;;;;;;;;;6267062;22;20050;-94
2023/12/07 02:29:30;;;;;;;10.65;6.70;;;;;;;;;;6268673;22;20023;-96
2023/12/07 02:31:56;;;;;;;8.00;6.22;;;;;;;;;;6268086;22;20031;-96
2023/12/07 02:34:22;;;;;;;9.60;7.10;;;;;;;;;;6242292;22;20024;-96
2023/12/07 02:36:49;;;;;;;9.07;6.40;;;;;;;;;;6242098;22;20027;-96
2023/12/07 02:39:15;;;;;;;8.30;6.38;;;;;;;;;;6267440;22;20050;-96
2023/12/07 02:41:42;;;;;;;9.00;6.78;;;;;;;;;;6267738;22;20051;-96
2023/12/07 02:44:08;;;;;;;9.75;6.63;;;;;;;;;;6242228;22;20011;-96
2023/12/07 02:46:34;;;;;;;10.27;6.45;;;;;;;;;;6265659;22;20023;-96
2023/12/07 02:49:00;;;;;;;11.23;6.32;;;;;;;;;;6268018;22;20079;-96
2023/12/07 02:51:26;;;;;;;9.18;6.43;;;;;;;;;;6267857;22;20027;-96
2023/12/07 02:53:52;;;;;;;10.38;7.10;;;;;;;;;;6267381;22;20031;-96
2023/12/07 02:56:18;;;;;;;9.98;6.75;;;;;;;;;;6266675;22;20050;-94
2023/12/07 02:58:45;;;;;;;10.85;6.57;;;;;;;;;;6265252;22;20081;-96
2023/12/07 03:01:11;;;;;;;11.88;7.35;;;;;;;;;;6266702;22;20089;-96
2023/12/07 03:03:38;;;;;;;9.70;6.93;;;;;;;;;;6263084;22;20026;-94
2023/12/07 03:06:04;;;;;;;11.77;7.35;;;;;;;;;;6262492;22;20232;-96
2023/12/07 03:08:30;;;;;;;9.57;6.43;;;;;;;;;;6264444;22;20534;-96
2023/12/07 03:10:57;;;;;;;11.60;6.75;;;;;;;;;;6265672;22;20050;-96
2023/12/07 03:13:23;;;;;;;10.32;6.38;;;;;;;;;;6265703;22;20073;-96
2023/12/07 03:15:49;;;;;;;9.35;6.55;;;;;;;;;;6265389;22;20023;-96
2023/12/07 03:18:17;;;;;;;12.15;6.22;;;;;;;;;;6266919;22;20020;-96
2023/12/07 03:20:43;;;;;;;9.48;6.47;;;;;;;;;;6266573;22;20027;-95
2023/12/07 03:23:09;;;;;;;8.65;7.03;;;;;;;;;;6266244;22;20072;-96
2023/12/07 03:25:35;;;;;;;9.43;6.25;;;;;;;;;;6264811;22;20051;-96
2023/12/07 03:28:02;;;;;;;9.95;6.50;;;;;;;;;;6262141;22;20039;-96
2023/12/07 03:30:30;;;;;;;9.60;6.22;;;;;;;;;;6251584;22;20038;-96
2023/12/07 03:32:56;;;;;;;9.05;6.50;;;;;;;;;;6251885;22;20011;-96
2023/12/07 03:35:30;;;;;;;9.10;6.53;;;;;;;;;;6252429;22;20054;-96
2023/12/07 03:37:56;;;;;;;8.63;6.57;;;;;;;;;;6252269;22;20456;-96
2023/12/07 03:40:23;;;;;;;12.73;6.90;;;;;;;;;;6252401;22;20019;-96
2023/12/07 03:42:52;;;;;;;9.82;6.55;;;;;;;;;;6251865;22;20023;-96
2023/12/07 03:45:21;;;;;;;9.32;6.32;;;;;;;;;;6251601;22;20023;-96
2023/12/07 03:47:59;;;;;;;9.25;6.82;;;;;;;;;;6251577;22;20020;-96
2023/12/07 03:50:27;;;;;;;9.52;6.45;;;;;;;;;;6251260;22;20024;-96
2023/12/07 03:52:53;;;;;;;10.55;5.72;;;;;;;;;;6251585;22;20020;-96
2023/12/07 03:55:36;;;;;;;13.85;6.93;;;;;;;;;;6252919;22;20024;-96
2023/12/07 03:58:05;;;;;;;17.70;6.93;;;;;;;;;;6236951;22;20027;-96
2023/12/07 04:00:32;;;;;;;12.43;6.15;;;;;;;;;;6257857;22;20032;-96
2023/12/07 04:02:59;;;;;;;10.48;6.53;;;;;;;;;;6258809;22;20037;-96
2023/12/07 04:05:45;;;;;;;;;;;;;;;;;;;;;
2023/12/07 04:08:12;;;;;;;10.07;7.20;;;;;;;;;;6257382;22;20046;-92
2023/12/07 04:10:38;;;;;;;8.07;6.13;;;;;;;;;;6256726;22;20055;-91
2023/12/07 04:13:04;;;;;;;7.70;6.00;;;;;;;;;;6257847;22;20090;-92
2023/12/07 04:15:30;;;;;;;8.68;6.05;;;;;;;;;;6255971;22;20027;-91
2023/12/07 04:17:57;;;;;;;9.60;6.07;;;;;;;;;;6229739;22;20024;-92
2023/12/07 04:20:23;;;;;;;8.70;6.25;;;;;;;;;;6230665;22;20024;-92
2023/12/07 04:22:49;;;;;;;9.30;6.93;;;;;;;;;;6255878;22;20119;-92
2023/12/07 04:25:15;;;;;;;8.95;5.95;;;;;;;;;;6230682;22;20016;-92
2023/12/07 04:27:41;;;;;;;8.32;6.53;;;;;;;;;;6255944;22;20031;-92
2023/12/07 04:30:07;;;;;;;11.55;5.95;;;;;;;;;;6231238;22;20030;-92
2023/12/07 04:32:33;;;;;;;7.45;5.22;;;;;;;;;;6256458;22;20348;-92
2023/12/07 04:34:59;;;;;;;10.38;6.70;;;;;;;;;;6230902;22;20487;-92
2023/12/07 04:37:25;;;;;;;11.93;6.20;;;;;;;;;;6255966;22;20120;-91
2023/12/07 04:39:51;;;;;;;10.15;6.65;;;;;;;;;;6230992;22;20110;-91
2023/12/07 04:42:17;;;;;;;10.57;6.55;;;;;;;;;;6230485;22;20020;-91
2023/12/07 04:44:43;;;;;;;9.20;6.30;;;;;;;;;;6230468;22;20314;-91
2023/12/07 04:47:09;;;;;;;12.38;7.00;;;;;;;;;;6256070;22;20313;-92
2023/12/07 04:49:35;;;;;;;9.05;6.13;;;;;;;;;;6229946;22;20020;-91
2023/12/07 04:52:02;;;;;;;7.57;5.43;;;;;;;;;;6230723;22;20011;-92
2023/12/07 04:54:36;;;;;;;8.75;5.45;;;;;;;;;;6258727;22;20016;-92
2023/12/07 04:57:01;;;;;;;;;;;2.40;99.90;;;;;;6260837;22;20055;-92
2023/12/07 04:59:27;;;;;;;9.18;6.20;;;;;;;;;;6260455;22;19918;-92
2023/12/07 05:01:59;;;;;;;8.57;6.95;;;;;;;;;;6287232;22;20020;-93
2023/12/07 05:04:26;;;;;;;10.50;6.75;;;;;;;;;;6261327;22;20031;-92
2023/12/07 05:06:54;;;;;;;10.25;6.85;;;;;;;;;;6236719;22;20027;-92
2023/12/07 05:09:21;;;;;;;10.65;7.00;;;;;;;;;;6259541;22;20023;-91
2023/12/07 05:11:48;;;;;;;8.93;6.25;;;;;;;;;;6234599;22;20119;-93
2023/12/07 05:14:22;;;;;;;10.90;7.45;;;;;;;;;;6286786;22;20149;-93
2023/12/07 05:17:08;;;;;;;10.93;7.22;;;;;;;;;;6267795;22;20026;-92
2023/12/07 05:19:37;;;;;;;12.07;6.88;;;;;;;;;;6288643;22;20020;-92
2023/12/07 05:22:03;;;;;;;10.48;7.80;;;;;;;;;;6234679;22;20050;-90
2023/12/07 05:24:31;;;;;;;12.73;7.47;;;;;;;;;;6259328;22;20019;-91
2023/12/07 05:26:57;;;;;;;14.52;7.82;;;;;;;;;;6234527;22;20020;-92
2023/12/07 05:29:23;;;;;;;12.50;7.15;;;;;;;;;;6236929;22;20023;-92
2023/12/07 05:31:53;;;;;;;13.40;8.35;;;;;;;;;;6236423;22;20027;-92
2023/12/07 05:34:19;;;;;;;14.30;7.85;;;;;;;;;;6258788;22;20406;-92
2023/12/07 05:36:46;;;;;;;10.13;7.03;;;;;;;;;;6257260;22;20015;-92
2023/12/07 05:39:13;;;;;;;10.52;7.68;;;;;;;;;;6257205;22;20024;-93
2023/12/07 05:41:39;;;;;;;17.95;9.15;;;;;;;;;;6235060;22;20043;-92
2023/12/07 05:44:05;;;;;;;16.00;9.23;;;;;;;;;;6234420;22;20051;-93
2023/12/07 05:46:32;;;;;;;11.18;7.45;;;;;;;;;;6259955;22;20483;-93
2023/12/07 05:48:58;;;;;;;11.77;8.48;;;;;;;;;;6259933;22;20019;-90
2023/12/07 05:51:25;;;;;;;19.48;8.82;;;;;;;;;;6258540;22;20027;-92
2023/12/07 05:53:51;;;;;;;11.88;8.35;;;;;;;;;;6261164;22;20050;-91
2023/12/07 05:56:20;;;;;;;15.63;8.30;;;;;;;;;;6258845;22;20150;-92
2023/12/07 05:58:47;;;;;;;13.00;8.73;;;;;;;;;;6259084;22;20027;-93
2023/12/07 06:01:13;;;;;;;11.73;7.63;;;;;;;;;;6258399;22;20028;-92
2023/12/07 06:03:39;;;;;;;15.40;9.27;;;;;;;;;;6259923;22;20107;-92
2023/12/07 06:06:05;;;;;;;14.32;7.90;;;;;;;;;;6233776;22;20460;-93
2023/12/07 06:08:49;;;;;;;15.02;8.95;;;;;;;;;;6252498;22;20103;-94
2023/12/07 06:11:35;;;;;;;10.95;8.65;;;;;;;;;;6275164;22;20031;-93
2023/12/07 06:14:11;;;;;;;18.95;9.40;;;;;;;;;;6274819;22;20046;-93
2023/12/07 06:17:09;;;;;;;12.93;8.07;;;;;;;;;;6250447;22;20026;-93
2023/12/07 06:20:03;;;;;;;15.38;8.90;;;;;;;;;;6275697;22;20023;-93
2023/12/07 06:22:50;;;;;;;12.00;8.18;;;;;;;;;;6248356;22;20345;-94
2023/12/07 06:25:37;;;;;;;16.92;9.50;;;;;;;;;;6275649;22;20097;-93
2023/12/07 06:28:06;;;;;;;13.13;9.43;;;;;;;;;;6157334;23;20024;-94
2023/12/07 06:30:39;;;;;;;13.32;8.98;;;;;;;;;;6133579;23;20427;-93
2023/12/07 06:33:10;;;;;;;13.75;8.65;;;;;;;;;;6132396;23;20072;-94
2023/12/07 06:35:36;;;;;;;14.85;9.43;;;;;;;;;;6107750;23;20021;-93
2023/12/07 06:38:02;;;;;;;15.57;9.63;;;;;;;;;;6108289;23;20021;-93
2023/12/07 06:40:29;;;;;;;16.15;9.10;;;;;;;;;;6133109;23;20060;-94
2023/12/07 06:42:55;;;;;;;13.80;7.95;;;;;;;;;;6134231;23;20017;-94
2023/12/07 06:45:21;;;;;;;15.52;8.85;;;;;;;;;;6136178;23;20072;-94
2023/12/07 06:47:47;;;;;;;14.10;8.38;;;;;;;;;;6108690;23;20032;-94
2023/12/07 06:50:13;;;;;;;14.65;9.68;;;;;;;;;;6133286;23;20419;-94
2023/12/07 06:52:40;;;;;;;13.57;8.65;;;;;;;;;;6109884;23;20021;-94
2023/12/07 06:55:06;;;;;;;12.00;8.63;;;;;;;;;;6133431;23;20028;-95
2023/12/07 06:57:33;;;;;;;11.40;8.70;;;;;;;;;;6133308;23;20390;-94
2023/12/07 06:59:59;;;;;;;12.93;9.25;;;;;;;;;;6212407;22;20055;-95
2023/12/07 07:02:25;;;;;;;13.27;8.88;;;;;;;;;;6224678;22;20106;-95
2023/12/07 07:04:51;;;;;;;16.48;7.78;;;;;;;;;;6225167;22;20024;-94
2023/12/07 07:07:18;;;;;;;16.42;9.73;;;;;;;;;;6251528;22;20019;-95
2023/12/07 07:09:44;;;;;;;12.68;8.68;;;;;;;;;;6252774;22;20471;-94
2023/12/07 07:12:10;;;;;;;15.13;9.50;;;;;;;;;;6252921;22;20020;-95
2023/12/07 07:14:36;;;;;;;17.52;8.32;;;;;;;;;;6253371;22;20027;-94
2023/12/07 07:17:04;;;;;;;13.70;8.20;;;;;;;;;;6251960;22;20027;-93
2023/12/07 07:19:30;;;;;;;14.48;8.50;;;;;;;;;;6253206;22;20094;-95
2023/12/07 07:21:56;;;;;;;16.67;9.63;;;;;;;;;;6252119;22;20027;-96
2023/12/07 07:24:22;;;;;;;15.10;10.27;;;;;;;;;;6251050;22;20054;-94
2023/12/07 07:26:48;;;;;;;16.08;9.95;;;;;;;;;;6225959;22;20314;-95
2023/12/07 07:29:14;;;;;;;14.82;9.90;;;;;;;;;;6250957;22;20024;-95
2023/12/07 07:31:40;;;;;;;13.13;8.50;;;;;;;;;;6250840;22;20015;-94
2023/12/07 07:34:07;;;;;;;17.60;9.73;;;;;;;;;;6225554;22;20027;-95
2023/12/07 07:36:33;;;;;;;16.35;10.88;;;;;;;;;;6225975;22;20024;-95
2023/12/07 07:39:00;;;;;;;13.38;9.30;;;;;;;;;;6225911;22;20528;-94
2023/12/07 07:41:26;;;;;;;16.60;8.75;;;;;;;;;;6250791;22;20023;-94
2023/12/07 07:43:52;;;;;;;18.50;9.68;;;;;;;;;;6225609;22;20031;-95
2023/12/07 07:46:18;;;;;;;19.70;10.25;;;;;;;;;;6251077;22;20360;-94
2023/12/07 07:48:44;;;;;;;13.70;9.65;;;;;;;;;;6225694;22;20099;-94
2023/12/07 07:51:10;;;;;;;17.52;10.45;;;;;;;;;;6250455;22;20086;-94
2023/12/07 07:53:36;;;;;;;14.38;10.35;;;;;;;;;;6250768;22;20102;-94
2023/12/07 07:56:03;;;;;;;16.02;9.40;;;;;;;;;;6251369;22;20020;-94
2023/12/07 07:58:29;;;;;;;13.18;9.30;;;;;;;;;;6250748;22;20019;-94
2023/12/07 08:00:55;;;;;;;16.17;9.93;;;;;;;;;;6250378;22;20031;-94
2023/12/07 08:03:21;;;;;;;16.77;10.55;;;;;;;;;;6250030;22;20020;-95
2023/12/07 08:05:47;;;;;;;16.92;11.02;;;;;;;;;;6250506;22;20020;-94
2023/12/07 08:08:13;;;;;;;16.95;10.13;;;;;;;;;;6224980;22;20030;-94
2023/12/07 08:10:39;;;;;;;14.82;9.52;;;;;;;;;;6250541;22;20020;-95
2023/12/07 08:13:07;;;;;;;24.58;10.70;;;;;;;;;;6225629;22;20106;-95
2023/12/07 08:15:33;;;;;;;18.10;11.13;;;;;;;;;;6250149;22;20098;-95
2023/12/07 08:18:00;;;;;;;17.73;11.15;;;;;;;;;;6250242;22;20019;-95
2023/12/07 08:20:26;;;;;;;22.08;11.60;;;;;;;;;;6251090;22;20137;-95
2023/12/07 08:22:52;;;;;;;21.00;12.00;;;;;;;;;;6225433;22;20027;-95
2023/12/07 08:25:18;;;;;;;17.70;10.55;;;;;;;;;;6225469;22;20023;-94
2023/12/07 08:27:45;;;;;;;19.40;12.13;;;;;;;;;;6250271;22;20027;-94
2023/12/07 08:30:12;;;;;;;21.08;12.00;;;;;;;;;;6250237;22;20020;-94
2023/12/07 08:32:39;;;;;;;23.85;14.73;;;;;;;;;;6250190;22;20024;-95
2023/12/07 08:35:05;;;;;;;28.70;14.45;;;;;;;;;;6249786;22;20030;-95
2023/12/07 08:37:34;;;;;;;22.02;12.75;;;;;;;;;;6225035;22;20019;-94
2023/12/07 08:40:00;;;;;;;21.40;13.00;;;;;;;;;;6224840;22;20086;-95
2023/12/07 08:42:27;;;;;;;21.65;12.65;;;;;;;;;;6250256;22;20330;-94
2023/12/07 08:44:53;;;;;;;22.92;14.05;;;;;;;;;;6250436;22;20023;-95
2023/12/07 08:47:19;;;;;;;24.25;13.15;;;;;;;;;;6250259;22;20020;-95
2023/12/07 08:49:46;;;;;;;23.70;14.55;;;;;;;;;;6249700;22;20020;-95
2023/12/07 08:52:12;;;;;;;22.85;14.65;;;;;;;;;;6250241;22;20024;-95
2023/12/07 08:54:38;;;;;;;25.30;14.32;;;;;;;;;;6250629;22;20026;-95
2023/12/07 08:57:04;;;;;;;24.70;14.75;;;;;;;;;;6250374;22;20023;-95
2023/12/07 08:59:30;;;;;;;22.98;13.20;;;;;;;;;;6249943;22;20099;-95
2023/12/07 09:01:57;;;;;;;19.88;12.93;;;;;;;;;;6249982;22;20024;-96
2023/12/07 09:04:23;;;;;;;25.85;14.25;;;;;;;;;;6249682;22;20120;-94
2023/12/07 09:06:49;;;;;;;26.17;15.75;;;;;;;;;;6224992;22;20101;-94
2023/12/07 09:09:15;;;;;;;29.45;15.63;;;;;;;;;;6249535;22;20027;-96
2023/12/07 09:11:41;;;;;;;25.45;15.48;;;;;;;;;;6225371;22;20056;-95
2023/12/07 09:14:08;;;;;;;24.48;13.77;;;;;;;;;;6250049;22;20016;-96
2023/12/07 09:16:34;;;;;;;22.67;14.75;;;;;;;;;;6249767;22;20102;-96
2023/12/07 09:19:01;;;;;;;24.27;14.82;;;;;;;;;;6224927;22;20019;-96
2023/12/07 09:21:27;;;;;;;21.17;14.05;;;;;;;;;;6249950;22;20020;-95
2023/12/07 09:23:53;;;;;;;25.23;13.95;;;;;;;;;;6225049;22;20023;-95
2023/12/07 09:26:19;;;;;;;24.48;14.85;;;;;;;;;;6249494;22;20449;-95
2023/12/07 09:28:46;;;;;;;27.77;15.60;;;;;;;;;;6224492;22;20519;-94
2023/12/07 09:31:12;;;;;;;25.10;14.73;;;;;;;;;;6250171;22;20111;-96
2023/12/07 09:33:38;;;;;;;24.60;15.15;;;;;;;;;;6224706;22;20433;-94
2023/12/07 09:36:07;;;;;;;25.25;15.40;;;;;;;;;;6224023;22;20126;-95
2023/12/07 09:38:36;;;;;;;32.70;17.02;;;;;;;;;;6225198;22;20020;-95
2023/12/07 09:41:02;;;;;;;25.42;14.95;;;;;;;;;;6249558;22;20077;-95
2023/12/07 09:43:29;;;;;;;28.75;16.38;;;;;;;;;;6249625;22;20050;-95
2023/12/07 09:45:55;;;;;;;23.77;16.50;;;;;;;;;;6224327;22;20065;-95
2023/12/07 09:48:21;;;;;;;25.77;16.08;;;;;;;;;;6249537;22;20020;-94
2023/12/07 09:50:48;;;;;;;24.98;16.05;;;;;;;;;;6249845;22;20027;-94
2023/12/07 09:53:14;;;;;;;28.08;15.73;;;;;;;;;;6249573;22;20022;-95
2023/12/07 09:55:40;;;;;;;28.08;16.65;;;;;;;;;;6249633;22;20020;-95
2023/12/07 09:58:06;;;;;;;25.00;15.10;;;;;;;;;;6249856;22;20407;-94
2023/12/07 10:00:33;;;;;;;26.00;14.95;;;;;;;;;;6249616;22;20030;-95
2023/12/07 10:02:59;;;;;;;24.38;13.90;;;;;;;;;;6249227;22;20026;-94
2023/12/07 10:05:25;;;;;;;25.80;15.68;;;;;;;;;;6249492;22;20019;-94
2023/12/07 10:07:51;;;;;;;28.25;16.73;;;;;;;;;;6249841;22;20027;-95
2023/12/07 10:10:18;;;;;;;24.83;15.60;;;;;;;;;;6249131;22;20020;-94
2023/12/07 10:12:46;;;;;;;23.27;14.35;;;;;;;;;;6224214;22;20031;-95
2023/12/07 10:15:16;;;;;;;32.85;14.10;;;;;;;;;;6248549;22;20024;-92
2023/12/07 10:17:47;;;;;;;24.08;15.40;;;;;;;;;;6249016;22;20019;-92
2023/12/07 10:20:14;;;;;;;27.50;15.68;;;;;;;;;;6249068;22;20476;-93
2023/12/07 10:22:41;;;;;;;24.25;15.60;;;;;;;;;;6223940;22;20019;-93
2023/12/07 10:25:07;;;;;;;24.88;15.77;;;;;;;;;;6249277;22;20089;-93
2023/12/07 10:27:35;;;;;;;23.33;15.45;;;;;;;;;;6248579;22;20027;-92
2023/12/07 10:30:01;;;;;;;28.95;16.20;;;;;;;;;;6248923;22;20019;-93
2023/12/07 10:32:27;;;;;;;27.25;15.88;;;;;;;;;;6248873;22;20016;-92
2023/12/07 10:34:56;;;;;;;28.85;16.13;;;;;;;;;;6223567;22;20020;-95
2023/12/07 10:37:22;;;;;;;24.55;15.00;;;;;;;;;;6248692;22;20098;-93
2023/12/07 10:39:48;;;;;;;25.23;13.45;;;;;;;;;;6250803;22;20020;-93
2023/12/07 10:42:16;;;;;;;20.85;13.13;;;;;;;;;;6250662;22;20020;-94
2023/12/07 10:44:43;;;;;;;23.30;14.63;;;;;;;;;;6251128;22;20051;-93
2023/12/07 10:47:12;;;;;;;26.45;15.73;;;;;;;;;;6250780;22;20058;-93
2023/12/07 10:49:41;;;;;;;26.77;15.82;;;;;;;;;;6226530;22;20020;-94
2023/12/07 10:52:08;;;;;;;23.67;15.18;;;;;;;;;;6250773;22;20482;-93
2023/12/07 10:54:42;;;;;;;22.52;13.98;;;;;;;;;;6251027;22;20027;-94
2023/12/07 10:57:09;;;;;;;22.77;14.18;;;;;;;;;;6250518;22;20055;-93
2023/12/07 10:59:36;;;;;;;23.02;14.55;;;;;;;;;;6225449;22;20455;-91
2023/12/07 11:02:02;;;;;;;26.05;15.65;;;;;;;;;;6250144;22;20031;-92
2023/12/07 11:04:30;;;;;;;25.45;16.30;;;;;;;;;;6225191;22;20098;-93
2023/12/07 11:06:59;;;;;;;26.27;16.08;;;;;;;;;;6250556;22;20348;-93
2023/12/07 11:09:31;;;;;;;24.02;14.27;;;;;;;;;;6250235;22;20031;-93
2023/12/07 11:12:01;;;;;;;23.15;14.75;;;;;;;;;;6250293;22;20099;-92
2023/12/07 11:14:27;;;;;;;28.73;16.27;;;;;;;;;;6250238;22;20468;-93
2023/12/07 11:16:53;;;;;;;22.23;13.88;;;;;;;;;;6250741;22;20023;-91
2023/12/07 11:19:32;;;;;;;22.00;13.57;;;;;;;;;;6225521;22;20527;-93
2023/12/07 11:22:01;;;;;;;19.73;13.10;;;;;;;;;;6250199;22;20100;-93
2023/12/07 11:24:27;;;;;;;21.60;14.27;;;;;;;;;;6250171;22;20106;-93
2023/12/07 11:26:56;;;;;;;19.05;12.73;;;;;;;;;;6225448;22;20031;-92
2023/12/07 11:29:26;;;;;;;25.00;13.20;;;;;;;;;;6224917;22;20020;-92
2023/12/07 11:31:56;;;;;;;22.13;12.52;;;;;;;;;;6250665;22;20046;-91
2023/12/07 11:34:41;;;;;;;23.90;13.20;;;;;;;;;;6249619;22;20043;-92
2023/12/07 11:37:08;;;;;;;19.60;11.55;;;;;;;;;;6250242;22;20023;-92
2023/12/07 11:39:38;;;;;;;19.08;12.50;;;;;;;;;;6249982;22;20023;-92
2023/12/07 11:42:13;;;;;;;20.63;13.30;;;;;;;;;;6225010;22;20023;-92
2023/12/07 11:44:40;;;;;;;25.67;13.23;;;;;;;;;;6250198;22;20012;-92
2023/12/07 11:47:07;;;;;;;18.90;13.15;;;;;;;;;;6249895;22;20098;-91
2023/12/07 11:49:33;;;;;;;21.67;14.65;;;;;;;;;;6249941;22;20016;-92
2023/12/07 11:52:00;;;;;;;23.85;14.43;;;;;;;;;;6249927;22;20031;-92
2023/12/07 11:54:27;;;;;;;24.17;15.52;;;;;;;;;;6249098;22;20026;-91
2023/12/07 11:56:56;;;;;;;26.95;17.20;;;;;;;;;;6224506;22;20077;-91
2023/12/07 11:59:25;;;;;;;32.88;18.67;;;;;;;;;;6224510;22;20023;-93
2023/12/07 12:01:52;;;;;;;28.50;17.23;;;;;;;;;;6250130;22;20026;-92
2023/12/07 12:04:18;;;;;;;33.13;17.80;;;;;;;;;;6250108;22;20449;-93
2023/12/07 12:06:45;;;;;;;29.25;18.33;;;;;;;;;;6249613;22;20027;-92
2023/12/07 12:09:20;;;;;;;28.73;17.77;;;;;;;;;;6224614;22;20055;-93
2023/12/07 12:11:47;;;;;;;27.95;18.27;;;;;;;;;;6249622;22;20024;-92
2023/12/07 12:14:17;;;;;;;30.15;18.33;;;;;;;;;;6249907;22;20023;-93
2023/12/07 12:16:47;;;;;;;27.17;17.15;;;;;;;;;;6224037;22;20501;-92
2023/12/07 12:19:16;;;;;;;27.23;16.92;;;;;;;;;;6224364;22;20022;-93
2023/12/07 12:21:46;;;;;;;26.33;16.15;;;;;;;;;;6224912;22;20062;-91
2023/12/07 12:24:12;;;;;;;31.30;17.20;;;;;;;;;;6249250;22;20020;-92
2023/12/07 12:26:42;;;;;;;26.85;16.00;;;;;;;;;;6224188;22;20024;-92
2023/12/07 12:29:08;;;;;;;27.27;16.50;;;;;;;;;;6249421;22;20022;-91
2023/12/07 12:31:35;;;;;;;26.35;16.75;;;;;;;;;;6249275;22;20457;-92
2023/12/07 12:34:02;;;;;;;30.85;16.40;;;;;;;;;;6248953;22;20094;-92
2023/12/07 12:36:29;;;;;;;28.02;14.52;;;;;;;;;;6249534;22;20334;-91
2023/12/07 12:38:55;;;;;;;25.08;14.35;;;;;;;;;;6249345;22;20012;-91
2023/12/07 12:41:22;;;;;;;26.92;15.25;;;;;;;;;;6249347;22;20031;-91
2023/12/07 12:43:49;;;;;;;27.58;16.05;;;;;;;;;;6248977;22;20020;-91
2023/12/07 12:46:16;;;;;;;30.15;17.50;;;;;;;;;;6248911;22;20019;-92
2023/12/07 12:48:55;;;;;;;29.45;16.15;;;;;;;;;;6248624;22;20399;-91
2023/12/07 12:51:23;;;;;;;30.95;17.08;;;;;;;;;;6249166;22;20022;-92
2023/12/07 12:53:51;;;;;;;31.02;17.05;;;;;;;;;;6249315;22;20074;-92
2023/12/07 12:56:18;;;;;;;32.10;17.25;;;;;;;;;;6249114;22;20024;-91
2023/12/07 12:58:45;;;;;;;29.90;17.17;;;;;;;;;;6248811;22;20020;-90
2023/12/07 13:01:11;;;;;;;28.73;17.08;;;;;;;;;;6248911;22;20024;-92
2023/12/07 13:03:37;;;;;;;37.60;16.67;;;;;;;;;;6223504;22;20016;-91
2023/12/07 13:06:03;;;;;;;31.08;17.25;;;;;;;;;;6224262;22;20039;-91
2023/12/07 13:08:33;;;;;;;36.40;17.35;;;;;;;;;;6248634;22;20023;-91
2023/12/07 13:10:59;;;;;;;26.27;16.25;;;;;;;;;;6248756;22;20326;-91
2023/12/07 13:13:25;;;;;;;25.63;14.43;;;;;;;;;;6248924;22;20452;-91
2023/12/07 13:15:51;;;;;;;31.05;16.60;;;;;;;;;;6223594;22;20092;-92
2023/12/07 13:18:18;;;;;;;36.40;15.20;;;;;;;;;;6248803;22;20015;-92
2023/12/07 13:20:44;;;;;;;32.45;18.23;;;;;;;;;;6223864;22;20016;-92
2023/12/07 13:23:10;;;;;;;35.75;17.45;;;;;;;;;;6248730;22;20020;-91
2023/12/07 13:25:36;;;;;;;30.05;17.08;;;;;;;;;;6248776;22;20019;-91
2023/12/07 13:28:02;;;;;;;28.20;15.73;;;;;;;;;;6249088;22;20016;-91
2023/12/07 13:30:29;;;;;;;28.52;14.90;;;;;;;;;;6248906;22;20055;-91
2023/12/07 13:32:55;;;;;;;26.48;14.13;;;;;;;;;;6223734;22;20012;-91
2023/12/07 13:35:22;;;;;;;25.95;13.43;;;;;;;;;;6248879;22;20081;-91
2023/12/07 13:37:48;;;;;;;22.80;13.23;;;;;;;;;;6224042;22;20020;-91
2023/12/07 13:40:15;;;;;;;18.13;12.10;;;;;;;;;;6248952;22;20399;-91
2023/12/07 13:42:41;;;;;;;24.23;13.98;;;;;;;;;;6248894;22;20020;-92
2023/12/07 13:45:08;;;;;;;19.45;12.60;;;;;;;;;;6224002;22;20480;-92
2023/12/07 13:47:36;;;;;;;24.70;14.02;;;;;;;;;;6224308;22;20020;-91
2023/12/07 13:50:03;;;;;;;21.15;13.75;;;;;;;;;;6249396;22;20548;-91
2023/12/07 13:52:30;;;;;;;29.98;15.90;;;;;;;;;;6249237;22;20016;-91
2023/12/07 13:54:56;;;;;;;25.58;15.10;;;;;;;;;;6249439;22;20424;-91
2023/12/07 13:57:26;;;;;;;24.25;13.98;;;;;;;;;;6249257;22;20318;-89
2023/12/07 13:59:52;;;;;;;20.08;13.38;;;;;;;;;;6253982;22;20027;-90
2023/12/07 14:02:19;;;;;;;24.13;13.70;;;;;;;;;;6254254;22;20016;-89
2023/12/07 14:04:45;;;;;;;21.30;13.73;;;;;;;;;;6255126;22;20122;-89
2023/12/07 14:07:12;;;;;;;24.92;14.23;;;;;;;;;;6251293;22;20023;-88
2023/12/07 14:09:40;;;;;;;29.90;14.93;;;;;;;;;;6233003;22;20024;-88
2023/12/07 14:12:06;;;;;;;22.27;13.20;;;;;;;;;;6262625;22;20027;-88
2023/12/07 14:14:32;;;;;;;22.50;13.55;;;;;;;;;;6262990;22;20054;-88
2023/12/07 14:16:58;;;;;;;27.35;15.15;;;;;;;;;;6261226;22;20026;-88
2023/12/07 14:19:25;;;;;;;28.92;14.18;;;;;;;;;;6263514;22;20100;-88
2023/12/07 14:21:51;;;;;;;24.58;15.05;;;;;;;;;;6238522;22;20028;-88
2023/12/07 14:24:17;;;;;;;21.40;13.82;;;;;;;;;;6264252;22;20019;-88
2023/12/07 14:26:44;;;;;;;23.88;14.85;;;;;;;;;;6236384;22;20020;-88